sensor_id;sensor_type;location;lat;lon;timestamp;P1;durP1;ratioP1;P2;durP2;ratioP2
2674;SDS011;1347;42.122;24.746;2022-09-03T00:01:42;18.03;;;16.40;;
2674;SDS011;1347;42.122;24.746;2022-09-03T00:04:18;16.93;;;15.30;;
2674;SDS011;1347;42.122;24.746;2022-09-03T00:06:50;17.87;;;16.20;;
2674;SDS011;1347;42.122;24.746;2022-09-03T00:09:24;21.23;;;19.03;;
2674;SDS011;1347;42.122;24.746;2022-09-03T00:11:54;18.63;;;16.87;;
2674;SDS011;1347;42.122;24.746;2022-09-03T00:14:32;19.03;;;17.33;;
2674;SDS011;1347;42.122;24.746;2022-09-03T00:17:06;21.10;;;18.80;;
2674;SDS011;1347;42.122;24.746;2022-09-03T00:19:40;19.47;;;17.77;;
2674;SDS011;1347;42.122;24.746;2022-09-03T00:22:12;20.60;;;18.60;;
2674;SDS011;1347;42.122;24.746;2022-09-03T00:24:43;20.30;;;18.40;;
2674;SDS011;1347;42.122;24.746;2022-09-03T00:27:14;17.43;;;15.63;;
2674;SDS011;1347;42.122;24.746;2022-09-03T00:29:45;19.13;;;17.50;;
2674;SDS011;1347;42.122;24.746;2022-09-03T00:32:18;18.20;;;16.60;;
2674;SDS011;1347;42.122;24.746;2022-09-03T00:34:52;19.87;;;17.80;;
2674;SDS011;1347;42.122;24.746;2022-09-03T00:37:23;19.40;;;17.33;;
2674;SDS011;1347;42.122;24.746;2022-09-03T00:39:51;17.60;;;16.13;;
2674;SDS011;1347;42.122;24.746;2022-09-03T00:42:23;18.90;;;16.90;;
2674;SDS011;1347;42.122;24.746;2022-09-03T00:45:08;19.33;;;17.40;;
2674;SDS011;1347;42.122;24.746;2022-09-03T00:47:53;21.00;;;19.13;;
2674;SDS011;1347;42.122;24.746;2022-09-03T00:50:33;21.40;;;19.03;;
2674;SDS011;1347;42.122;24.746;2022-09-03T00:53:11;22.43;;;19.97;;
2674;SDS011;1347;42.122;24.746;2022-09-03T00:55:48;22.27;;;20.13;;
2674;SDS011;1347;42.122;24.746;2022-09-03T00:58:34;23.97;;;20.47;;
2674;SDS011;1347;42.122;24.746;2022-09-03T01:01:09;22.07;;;19.90;;
2674;SDS011;1347;42.122;24.746;2022-09-03T01:03:42;21.17;;;19.07;;
2674;SDS011;1347;42.122;24.746;2022-09-03T01:06:21;21.00;;;19.00;;
2674;SDS011;1347;42.122;24.746;2022-09-03T01:09:01;20.73;;;18.73;;
2674;SDS011;1347;42.122;24.746;2022-09-03T01:11:38;19.77;;;17.70;;
2674;SDS011;1347;42.122;24.746;2022-09-03T01:14:23;21.97;;;19.77;;
2674;SDS011;1347;42.122;24.746;2022-09-03T01:17:02;22.73;;;20.57;;
2674;SDS011;1347;42.122;24.746;2022-09-03T01:20:02;21.50;;;19.53;;
2674;SDS011;1347;42.122;24.746;2022-09-03T01:22:54;22.50;;;19.77;;
2674;SDS011;1347;42.122;24.746;2022-09-03T01:25:44;20.13;;;18.00;;
2674;SDS011;1347;42.122;24.746;2022-09-03T01:28:31;21.43;;;19.30;;
2674;SDS011;1347;42.122;24.746;2022-09-03T01:31:13;19.53;;;17.50;;
2674;SDS011;1347;42.122;24.746;2022-09-03T01:33:52;20.10;;;18.30;;
2674;SDS011;1347;42.122;24.746;2022-09-03T01:36:32;20.40;;;18.20;;
2674;SDS011;1347;42.122;24.746;2022-09-03T01:39:10;20.10;;;18.20;;
2674;SDS011;1347;42.122;24.746;2022-09-03T01:41:46;17.63;;;15.97;;
2674;SDS011;1347;42.122;24.746;2022-09-03T01:44:40;19.23;;;17.30;;
2674;SDS011;1347;42.122;24.746;2022-09-03T01:47:34;21.40;;;19.23;;
2674;SDS011;1347;42.122;24.746;2022-09-03T01:50:15;21.87;;;17.10;;
2674;SDS011;1347;42.122;24.746;2022-09-03T01:52:52;19.90;;;17.90;;
2674;SDS011;1347;42.122;24.746;2022-09-03T01:55:25;17.87;;;16.10;;
2674;SDS011;1347;42.122;24.746;2022-09-03T01:57:57;19.37;;;17.50;;
2674;SDS011;1347;42.122;24.746;2022-09-03T02:00:31;18.80;;;17.00;;
2674;SDS011;1347;42.122;24.746;2022-09-03T02:03:03;18.00;;;16.40;;
2674;SDS011;1347;42.122;24.746;2022-09-03T02:05:32;20.03;;;18.03;;
2674;SDS011;1347;42.122;24.746;2022-09-03T02:08:00;22.47;;;20.07;;
2674;SDS011;1347;42.122;24.746;2022-09-03T02:10:29;20.80;;;18.70;;
2674;SDS011;1347;42.122;24.746;2022-09-03T02:12:59;21.13;;;18.93;;
2674;SDS011;1347;42.122;24.746;2022-09-03T02:15:31;22.27;;;19.57;;
2674;SDS011;1347;42.122;24.746;2022-09-03T02:18:01;18.73;;;17.03;;
2674;SDS011;1347;42.122;24.746;2022-09-03T02:20:31;18.07;;;16.23;;
2674;SDS011;1347;42.122;24.746;2022-09-03T02:22:59;22.80;;;18.53;;
2674;SDS011;1347;42.122;24.746;2022-09-03T02:25:28;18.30;;;16.00;;
2674;SDS011;1347;42.122;24.746;2022-09-03T02:28:02;18.53;;;16.83;;
2674;SDS011;1347;42.122;24.746;2022-09-03T02:30:32;21.10;;;16.33;;
2674;SDS011;1347;42.122;24.746;2022-09-03T02:32:59;17.90;;;16.07;;
2674;SDS011;1347;42.122;24.746;2022-09-03T02:35:26;16.73;;;15.10;;
2674;SDS011;1347;42.122;24.746;2022-09-03T02:37:54;19.17;;;16.07;;
2674;SDS011;1347;42.122;24.746;2022-09-03T02:40:20;17.63;;;14.40;;
2674;SDS011;1347;42.122;24.746;2022-09-03T02:42:47;17.60;;;15.77;;
2674;SDS011;1347;42.122;24.746;2022-09-03T02:45:18;17.57;;;15.87;;
2674;SDS011;1347;42.122;24.746;2022-09-03T02:47:53;17.20;;;15.60;;
2674;SDS011;1347;42.122;24.746;2022-09-03T02:50:21;18.80;;;15.70;;
2674;SDS011;1347;42.122;24.746;2022-09-03T02:52:49;17.17;;;15.17;;
2674;SDS011;1347;42.122;24.746;2022-09-03T02:55:16;20.63;;;16.00;;
2674;SDS011;1347;42.122;24.746;2022-09-03T02:57:44;18.37;;;16.57;;
2674;SDS011;1347;42.122;24.746;2022-09-03T03:00:11;18.03;;;15.30;;
2674;SDS011;1347;42.122;24.746;2022-09-03T03:02:39;17.10;;;15.70;;
2674;SDS011;1347;42.122;24.746;2022-09-03T03:05:08;19.77;;;17.00;;
2674;SDS011;1347;42.122;24.746;2022-09-03T03:07:42;20.17;;;16.50;;
2674;SDS011;1347;42.122;24.746;2022-09-03T03:10:09;17.77;;;16.07;;
2674;SDS011;1347;42.122;24.746;2022-09-03T03:12:36;19.53;;;17.33;;
2674;SDS011;1347;42.122;24.746;2022-09-03T03:15:04;16.87;;;15.27;;
2674;SDS011;1347;42.122;24.746;2022-09-03T03:17:32;17.93;;;16.23;;
2674;SDS011;1347;42.122;24.746;2022-09-03T03:19:59;17.67;;;15.77;;
2674;SDS011;1347;42.122;24.746;2022-09-03T03:22:27;17.83;;;16.13;;
2674;SDS011;1347;42.122;24.746;2022-09-03T03:24:54;17.60;;;15.10;;
2674;SDS011;1347;42.122;24.746;2022-09-03T03:27:21;16.73;;;15.00;;
2674;SDS011;1347;42.122;24.746;2022-09-03T03:29:48;17.07;;;15.37;;
2674;SDS011;1347;42.122;24.746;2022-09-03T03:32:16;15.97;;;14.47;;
2674;SDS011;1347;42.122;24.746;2022-09-03T03:34:43;17.67;;;15.70;;
2674;SDS011;1347;42.122;24.746;2022-09-03T03:37:10;15.90;;;14.40;;
2674;SDS011;1347;42.122;24.746;2022-09-03T03:39:38;15.93;;;14.17;;
2674;SDS011;1347;42.122;24.746;2022-09-03T03:42:05;16.53;;;14.90;;
2674;SDS011;1347;42.122;24.746;2022-09-03T03:44:32;17.27;;;15.57;;
2674;SDS011;1347;42.122;24.746;2022-09-03T03:46:59;18.70;;;15.70;;
2674;SDS011;1347;42.122;24.746;2022-09-03T03:49:26;16.00;;;14.40;;
2674;SDS011;1347;42.122;24.746;2022-09-03T03:51:53;18.07;;;15.60;;
2674;SDS011;1347;42.122;24.746;2022-09-03T03:54:19;17.23;;;15.63;;
2674;SDS011;1347;42.122;24.746;2022-09-03T03:56:48;16.30;;;14.70;;
2674;SDS011;1347;42.122;24.746;2022-09-03T03:59:15;15.93;;;14.13;;
2674;SDS011;1347;42.122;24.746;2022-09-03T04:01:42;15.70;;;14.10;;
2674;SDS011;1347;42.122;24.746;2022-09-03T04:04:09;16.00;;;14.37;;
2674;SDS011;1347;42.122;24.746;2022-09-03T04:06:36;17.70;;;15.33;;
2674;SDS011;1347;42.122;24.746;2022-09-03T04:09:03;15.80;;;14.30;;
2674;SDS011;1347;42.122;24.746;2022-09-03T04:11:29;15.77;;;14.23;;
2674;SDS011;1347;42.122;24.746;2022-09-03T04:13:58;16.90;;;15.20;;
2674;SDS011;1347;42.122;24.746;2022-09-03T04:16:25;16.20;;;14.50;;
2674;SDS011;1347;42.122;24.746;2022-09-03T04:18:53;14.07;;;12.77;;
2674;SDS011;1347;42.122;24.746;2022-09-03T04:21:21;17.37;;;14.80;;
2674;SDS011;1347;42.122;24.746;2022-09-03T04:23:50;19.03;;;14.70;;
2674;SDS011;1347;42.122;24.746;2022-09-03T04:26:19;16.40;;;13.70;;
2674;SDS011;1347;42.122;24.746;2022-09-03T04:28:47;18.60;;;13.50;;
2674;SDS011;1347;42.122;24.746;2022-09-03T04:31:16;14.10;;;12.50;;
2674;SDS011;1347;42.122;24.746;2022-09-03T04:33:44;14.83;;;12.30;;
2674;SDS011;1347;42.122;24.746;2022-09-03T04:36:12;13.90;;;12.37;;
2674;SDS011;1347;42.122;24.746;2022-09-03T04:38:42;12.90;;;11.60;;
2674;SDS011;1347;42.122;24.746;2022-09-03T04:41:12;13.30;;;11.80;;
2674;SDS011;1347;42.122;24.746;2022-09-03T04:43:40;13.10;;;11.43;;
2674;SDS011;1347;42.122;24.746;2022-09-03T04:46:08;13.50;;;11.30;;
2674;SDS011;1347;42.122;24.746;2022-09-03T04:48:38;14.90;;;11.83;;
2674;SDS011;1347;42.122;24.746;2022-09-03T04:51:06;11.80;;;10.60;;
2674;SDS011;1347;42.122;24.746;2022-09-03T04:53:35;13.63;;;12.33;;
2674;SDS011;1347;42.122;24.746;2022-09-03T04:56:10;15.47;;;12.40;;
2674;SDS011;1347;42.122;24.746;2022-09-03T04:58:38;13.60;;;11.60;;
2674;SDS011;1347;42.122;24.746;2022-09-03T05:01:06;14.67;;;12.87;;
2674;SDS011;1347;42.122;24.746;2022-09-03T05:03:34;13.10;;;11.60;;
2674;SDS011;1347;42.122;24.746;2022-09-03T05:06:03;15.77;;;13.03;;
2674;SDS011;1347;42.122;24.746;2022-09-03T05:08:32;14.80;;;13.20;;
2674;SDS011;1347;42.122;24.746;2022-09-03T05:11:01;14.20;;;12.70;;
2674;SDS011;1347;42.122;24.746;2022-09-03T05:13:28;13.03;;;11.10;;
2674;SDS011;1347;42.122;24.746;2022-09-03T05:15:57;12.20;;;11.00;;
2674;SDS011;1347;42.122;24.746;2022-09-03T05:18:25;10.63;;;9.60;;
2674;SDS011;1347;42.122;24.746;2022-09-03T05:20:56;12.10;;;10.90;;
2674;SDS011;1347;42.122;24.746;2022-09-03T05:23:26;13.87;;;10.07;;
2674;SDS011;1347;42.122;24.746;2022-09-03T05:25:54;11.87;;;10.57;;
2674;SDS011;1347;42.122;24.746;2022-09-03T05:28:22;10.93;;;9.63;;
2674;SDS011;1347;42.122;24.746;2022-09-03T05:30:57;10.70;;;9.60;;
2674;SDS011;1347;42.122;24.746;2022-09-03T05:33:24;11.17;;;9.97;;
2674;SDS011;1347;42.122;24.746;2022-09-03T05:35:52;11.90;;;9.87;;
2674;SDS011;1347;42.122;24.746;2022-09-03T05:38:19;10.23;;;9.20;;
2674;SDS011;1347;42.122;24.746;2022-09-03T05:40:47;17.40;;;10.73;;
2674;SDS011;1347;42.122;24.746;2022-09-03T05:43:14;11.47;;;10.27;;
2674;SDS011;1347;42.122;24.746;2022-09-03T05:45:42;9.80;;;8.80;;
2674;SDS011;1347;42.122;24.746;2022-09-03T05:48:08;13.10;;;9.53;;
2674;SDS011;1347;42.122;24.746;2022-09-03T05:50:35;11.23;;;8.63;;
2674;SDS011;1347;42.122;24.746;2022-09-03T05:53:02;13.20;;;8.73;;
2674;SDS011;1347;42.122;24.746;2022-09-03T05:55:29;10.60;;;9.63;;
2674;SDS011;1347;42.122;24.746;2022-09-03T05:57:58;8.63;;;7.73;;
2674;SDS011;1347;42.122;24.746;2022-09-03T06:00:25;10.07;;;9.17;;
2674;SDS011;1347;42.122;24.746;2022-09-03T06:02:52;12.87;;;9.13;;
2674;SDS011;1347;42.122;24.746;2022-09-03T06:05:19;10.13;;;9.03;;
2674;SDS011;1347;42.122;24.746;2022-09-03T06:07:46;15.70;;;9.87;;
2674;SDS011;1347;42.122;24.746;2022-09-03T06:10:16;10.47;;;8.77;;
2674;SDS011;1347;42.122;24.746;2022-09-03T06:12:43;9.80;;;8.90;;
2674;SDS011;1347;42.122;24.746;2022-09-03T06:15:15;12.43;;;8.93;;
2674;SDS011;1347;42.122;24.746;2022-09-03T06:17:42;8.87;;;7.97;;
2674;SDS011;1347;42.122;24.746;2022-09-03T06:20:09;11.00;;;9.80;;
2674;SDS011;1347;42.122;24.746;2022-09-03T06:22:36;10.77;;;8.50;;
2674;SDS011;1347;42.122;24.746;2022-09-03T06:25:03;9.27;;;8.37;;
2674;SDS011;1347;42.122;24.746;2022-09-03T06:27:31;9.67;;;8.77;;
2674;SDS011;1347;42.122;24.746;2022-09-03T06:29:58;11.10;;;7.60;;
2674;SDS011;1347;42.122;24.746;2022-09-03T06:32:27;9.50;;;7.63;;
2674;SDS011;1347;42.122;24.746;2022-09-03T06:34:54;9.23;;;8.37;;
2674;SDS011;1347;42.122;24.746;2022-09-03T06:37:20;9.27;;;8.27;;
2674;SDS011;1347;42.122;24.746;2022-09-03T06:39:47;9.00;;;8.10;;
2674;SDS011;1347;42.122;24.746;2022-09-03T06:42:15;8.00;;;7.30;;
2674;SDS011;1347;42.122;24.746;2022-09-03T06:44:42;7.13;;;6.50;;
2674;SDS011;1347;42.122;24.746;2022-09-03T06:47:09;7.97;;;7.33;;
2674;SDS011;1347;42.122;24.746;2022-09-03T06:49:38;8.47;;;7.57;;
2674;SDS011;1347;42.122;24.746;2022-09-03T06:52:05;10.33;;;7.93;;
2674;SDS011;1347;42.122;24.746;2022-09-03T06:54:32;9.60;;;8.57;;
2674;SDS011;1347;42.122;24.746;2022-09-03T06:56:59;10.37;;;9.37;;
2674;SDS011;1347;42.122;24.746;2022-09-03T06:59:26;9.10;;;8.20;;
2674;SDS011;1347;42.122;24.746;2022-09-03T07:01:53;9.17;;;8.40;;
2674;SDS011;1347;42.122;24.746;2022-09-03T07:04:22;10.60;;;8.00;;
2674;SDS011;1347;42.122;24.746;2022-09-03T07:06:50;8.70;;;8.00;;
2674;SDS011;1347;42.122;24.746;2022-09-03T07:09:17;9.03;;;8.13;;
2674;SDS011;1347;42.122;24.746;2022-09-03T07:11:45;8.73;;;7.90;;
2674;SDS011;1347;42.122;24.746;2022-09-03T07:14:13;9.40;;;8.53;;
2674;SDS011;1347;42.122;24.746;2022-09-03T07:16:41;12.10;;;8.80;;
2674;SDS011;1347;42.122;24.746;2022-09-03T07:19:08;8.97;;;8.20;;
2674;SDS011;1347;42.122;24.746;2022-09-03T07:21:36;8.70;;;7.80;;
2674;SDS011;1347;42.122;24.746;2022-09-03T07:24:04;7.73;;;7.07;;
2674;SDS011;1347;42.122;24.746;2022-09-03T07:26:32;9.17;;;8.10;;
2674;SDS011;1347;42.122;24.746;2022-09-03T07:29:02;10.57;;;9.47;;
2674;SDS011;1347;42.122;24.746;2022-09-03T07:31:30;10.70;;;7.67;;
2674;SDS011;1347;42.122;24.746;2022-09-03T07:33:59;9.10;;;7.60;;
2674;SDS011;1347;42.122;24.746;2022-09-03T07:36:28;8.43;;;7.77;;
2674;SDS011;1347;42.122;24.746;2022-09-03T07:38:56;8.70;;;7.90;;
2674;SDS011;1347;42.122;24.746;2022-09-03T07:41:26;9.77;;;8.40;;
2674;SDS011;1347;42.122;24.746;2022-09-03T07:43:56;8.77;;;8.00;;
2674;SDS011;1347;42.122;24.746;2022-09-03T07:46:33;8.40;;;7.60;;
2674;SDS011;1347;42.122;24.746;2022-09-03T07:49:02;7.53;;;6.90;;
2674;SDS011;1347;42.122;24.746;2022-09-03T07:51:30;7.93;;;6.33;;
2674;SDS011;1347;42.122;24.746;2022-09-03T07:54:00;7.23;;;6.60;;
2674;SDS011;1347;42.122;24.746;2022-09-03T07:56:30;6.40;;;5.90;;
2674;SDS011;1347;42.122;24.746;2022-09-03T07:58:59;8.77;;;7.20;;
2674;SDS011;1347;42.122;24.746;2022-09-03T08:01:27;6.60;;;6.00;;
2674;SDS011;1347;42.122;24.746;2022-09-03T08:03:57;8.50;;;6.60;;
2674;SDS011;1347;42.122;24.746;2022-09-03T08:06:24;8.83;;;7.93;;
2674;SDS011;1347;42.122;24.746;2022-09-03T08:08:56;8.70;;;7.40;;
2674;SDS011;1347;42.122;24.746;2022-09-03T08:11:25;9.50;;;7.13;;
2674;SDS011;1347;42.122;24.746;2022-09-03T08:13:55;7.30;;;6.70;;
2674;SDS011;1347;42.122;24.746;2022-09-03T08:16:26;8.40;;;7.70;;
2674;SDS011;1347;42.122;24.746;2022-09-03T08:18:54;8.17;;;6.90;;
2674;SDS011;1347;42.122;24.746;2022-09-03T08:21:21;8.90;;;6.70;;
2674;SDS011;1347;42.122;24.746;2022-09-03T08:23:49;9.43;;;7.40;;
2674;SDS011;1347;42.122;24.746;2022-09-03T08:26:18;9.90;;;7.83;;
2674;SDS011;1347;42.122;24.746;2022-09-03T08:28:48;7.50;;;6.80;;
2674;SDS011;1347;42.122;24.746;2022-09-03T08:31:17;8.40;;;7.67;;
2674;SDS011;1347;42.122;24.746;2022-09-03T08:33:46;9.07;;;8.37;;
2674;SDS011;1347;42.122;24.746;2022-09-03T08:36:16;12.70;;;8.60;;
2674;SDS011;1347;42.122;24.746;2022-09-03T08:38:44;8.70;;;8.00;;
2674;SDS011;1347;42.122;24.746;2022-09-03T08:41:13;8.40;;;7.77;;
2674;SDS011;1347;42.122;24.746;2022-09-03T08:43:51;7.90;;;6.70;;
2674;SDS011;1347;42.122;24.746;2022-09-03T08:46:37;8.90;;;8.13;;
2674;SDS011;1347;42.122;24.746;2022-09-03T08:49:18;7.70;;;6.90;;
2674;SDS011;1347;42.122;24.746;2022-09-03T08:51:51;8.20;;;7.60;;
2674;SDS011;1347;42.122;24.746;2022-09-03T08:54:23;8.77;;;8.07;;
2674;SDS011;1347;42.122;24.746;2022-09-03T08:56:52;8.03;;;7.43;;
2674;SDS011;1347;42.122;24.746;2022-09-03T08:59:21;8.10;;;7.40;;
2674;SDS011;1347;42.122;24.746;2022-09-03T09:01:51;8.23;;;7.50;;
2674;SDS011;1347;42.122;24.746;2022-09-03T09:04:29;9.23;;;8.10;;
2674;SDS011;1347;42.122;24.746;2022-09-03T09:07:07;7.87;;;7.17;;
2674;SDS011;1347;42.122;24.746;2022-09-03T09:09:40;8.33;;;7.70;;
2674;SDS011;1347;42.122;24.746;2022-09-03T09:12:16;9.40;;;7.37;;
2674;SDS011;1347;42.122;24.746;2022-09-03T09:15:00;8.27;;;7.60;;
2674;SDS011;1347;42.122;24.746;2022-09-03T09:20:32;7.67;;;7.07;;
2674;SDS011;1347;42.122;24.746;2022-09-03T09:23:07;9.00;;;8.30;;
2674;SDS011;1347;42.122;24.746;2022-09-03T09:25:40;7.50;;;6.90;;
2674;SDS011;1347;42.122;24.746;2022-09-03T09:28:15;8.43;;;7.73;;
2674;SDS011;1347;42.122;24.746;2022-09-03T09:30:44;8.80;;;8.00;;
2674;SDS011;1347;42.122;24.746;2022-09-03T09:33:14;7.80;;;6.97;;
2674;SDS011;1347;42.122;24.746;2022-09-03T09:35:43;8.40;;;7.70;;
2674;SDS011;1347;42.122;24.746;2022-09-03T09:38:11;8.57;;;7.77;;
2674;SDS011;1347;42.122;24.746;2022-09-03T09:40:39;7.93;;;7.13;;
2674;SDS011;1347;42.122;24.746;2022-09-03T09:43:08;8.30;;;7.50;;
2674;SDS011;1347;42.122;24.746;2022-09-03T09:45:38;8.50;;;7.70;;
2674;SDS011;1347;42.122;24.746;2022-09-03T09:48:08;7.80;;;7.10;;
2674;SDS011;1347;42.122;24.746;2022-09-03T09:50:42;8.10;;;7.33;;
2674;SDS011;1347;42.122;24.746;2022-09-03T09:53:10;8.27;;;7.40;;
2674;SDS011;1347;42.122;24.746;2022-09-03T09:55:49;8.80;;;7.97;;
2674;SDS011;1347;42.122;24.746;2022-09-03T09:58:20;9.60;;;8.60;;
2674;SDS011;1347;42.122;24.746;2022-09-03T10:00:55;9.50;;;8.30;;
2674;SDS011;1347;42.122;24.746;2022-09-03T10:03:23;8.23;;;7.43;;
2674;SDS011;1347;42.122;24.746;2022-09-03T10:06:00;8.03;;;7.33;;
2674;SDS011;1347;42.122;24.746;2022-09-03T10:08:50;7.73;;;7.00;;
2674;SDS011;1347;42.122;24.746;2022-09-03T10:11:19;8.10;;;7.40;;
2674;SDS011;1347;42.122;24.746;2022-09-03T10:13:51;8.07;;;6.90;;
2674;SDS011;1347;42.122;24.746;2022-09-03T10:16:21;7.43;;;6.80;;
2674;SDS011;1347;42.122;24.746;2022-09-03T10:18:53;8.20;;;7.50;;
2674;SDS011;1347;42.122;24.746;2022-09-03T10:21:29;7.80;;;7.20;;
2674;SDS011;1347;42.122;24.746;2022-09-03T10:24:03;6.77;;;6.27;;
2674;SDS011;1347;42.122;24.746;2022-09-03T10:26:44;7.27;;;6.60;;
2674;SDS011;1347;42.122;24.746;2022-09-03T10:29:12;7.77;;;7.07;;
2674;SDS011;1347;42.122;24.746;2022-09-03T10:31:47;8.60;;;7.90;;
2674;SDS011;1347;42.122;24.746;2022-09-03T10:34:24;7.93;;;7.23;;
2674;SDS011;1347;42.122;24.746;2022-09-03T10:37:05;10.93;;;7.93;;
2674;SDS011;1347;42.122;24.746;2022-09-03T10:39:46;8.73;;;7.70;;
2674;SDS011;1347;42.122;24.746;2022-09-03T10:42:27;8.40;;;7.60;;
2674;SDS011;1347;42.122;24.746;2022-09-03T10:45:06;10.20;;;9.30;;
2674;SDS011;1347;42.122;24.746;2022-09-03T10:50:33;9.77;;;8.97;;
2674;SDS011;1347;42.122;24.746;2022-09-03T10:53:17;8.40;;;7.70;;
2674;SDS011;1347;42.122;24.746;2022-09-03T10:55:55;9.83;;;8.20;;
2674;SDS011;1347;42.122;24.746;2022-09-03T10:58:33;9.60;;;8.80;;
2674;SDS011;1347;42.122;24.746;2022-09-03T11:01:11;9.30;;;8.40;;
2674;SDS011;1347;42.122;24.746;2022-09-03T11:03:47;9.60;;;8.70;;
2674;SDS011;1347;42.122;24.746;2022-09-03T11:06:19;9.07;;;8.20;;
2674;SDS011;1347;42.122;24.746;2022-09-03T11:08:52;8.80;;;7.80;;
2674;SDS011;1347;42.122;24.746;2022-09-03T11:11:25;10.07;;;8.10;;
2674;SDS011;1347;42.122;24.746;2022-09-03T11:14:00;8.50;;;7.70;;
2674;SDS011;1347;42.122;24.746;2022-09-03T11:16:33;9.03;;;8.33;;
2674;SDS011;1347;42.122;24.746;2022-09-03T11:19:06;9.87;;;8.87;;
2674;SDS011;1347;42.122;24.746;2022-09-03T11:21:36;9.17;;;8.13;;
2674;SDS011;1347;42.122;24.746;2022-09-03T11:24:08;10.60;;;8.57;;
2674;SDS011;1347;42.122;24.746;2022-09-03T11:26:39;9.60;;;8.70;;
2674;SDS011;1347;42.122;24.746;2022-09-03T11:29:11;9.13;;;7.70;;
2674;SDS011;1347;42.122;24.746;2022-09-03T11:31:45;8.87;;;7.97;;
2674;SDS011;1347;42.122;24.746;2022-09-03T11:34:26;8.77;;;7.97;;
2674;SDS011;1347;42.122;24.746;2022-09-03T11:37:06;9.07;;;8.27;;
2674;SDS011;1347;42.122;24.746;2022-09-03T11:39:51;8.77;;;7.87;;
2674;SDS011;1347;42.122;24.746;2022-09-03T11:42:25;6.93;;;6.23;;
2674;SDS011;1347;42.122;24.746;2022-09-03T11:44:58;8.30;;;7.20;;
2674;SDS011;1347;42.122;24.746;2022-09-03T11:47:36;7.60;;;7.00;;
2674;SDS011;1347;42.122;24.746;2022-09-03T11:50:06;7.20;;;6.60;;
2674;SDS011;1347;42.122;24.746;2022-09-03T11:52:45;6.40;;;5.80;;
2674;SDS011;1347;42.122;24.746;2022-09-03T11:55:24;5.70;;;5.20;;
2674;SDS011;1347;42.122;24.746;2022-09-03T11:57:55;6.40;;;5.80;;
2674;SDS011;1347;42.122;24.746;2022-09-03T12:00:23;6.40;;;5.90;;
2674;SDS011;1347;42.122;24.746;2022-09-03T12:02:51;7.03;;;6.33;;
2674;SDS011;1347;42.122;24.746;2022-09-03T12:05:27;6.27;;;5.10;;
2674;SDS011;1347;42.122;24.746;2022-09-03T12:08:08;5.47;;;4.97;;
2674;SDS011;1347;42.122;24.746;2022-09-03T12:11:04;6.20;;;5.60;;
2674;SDS011;1347;42.122;24.746;2022-09-03T12:13:44;7.27;;;6.30;;
2674;SDS011;1347;42.122;24.746;2022-09-03T12:16:27;7.10;;;6.40;;
2674;SDS011;1347;42.122;24.746;2022-09-03T12:19:14;6.10;;;5.60;;
2674;SDS011;1347;42.122;24.746;2022-09-03T12:21:51;6.93;;;5.67;;
2674;SDS011;1347;42.122;24.746;2022-09-03T12:24:20;6.40;;;4.67;;
2674;SDS011;1347;42.122;24.746;2022-09-03T12:26:49;6.07;;;5.47;;
2674;SDS011;1347;42.122;24.746;2022-09-03T12:29:19;5.80;;;5.30;;
2674;SDS011;1347;42.122;24.746;2022-09-03T12:31:49;6.30;;;4.10;;
2674;SDS011;1347;42.122;24.746;2022-09-03T12:34:17;5.30;;;4.60;;
2674;SDS011;1347;42.122;24.746;2022-09-03T12:36:46;4.03;;;3.67;;
2674;SDS011;1347;42.122;24.746;2022-09-03T12:39:15;4.50;;;4.20;;
2674;SDS011;1347;42.122;24.746;2022-09-03T12:41:51;4.03;;;3.73;;
2674;SDS011;1347;42.122;24.746;2022-09-03T12:44:25;4.37;;;4.07;;
2674;SDS011;1347;42.122;24.746;2022-09-03T12:46:59;3.43;;;3.20;;
2674;SDS011;1347;42.122;24.746;2022-09-03T12:49:32;3.40;;;3.10;;
2674;SDS011;1347;42.122;24.746;2022-09-03T12:52:02;4.37;;;3.10;;
2674;SDS011;1347;42.122;24.746;2022-09-03T12:54:35;5.70;;;4.17;;
2674;SDS011;1347;42.122;24.746;2022-09-03T12:57:09;3.97;;;3.67;;
2674;SDS011;1347;42.122;24.746;2022-09-03T12:59:45;3.40;;;3.10;;
2674;SDS011;1347;42.122;24.746;2022-09-03T13:02:17;4.53;;;2.60;;
2674;SDS011;1347;42.122;24.746;2022-09-03T13:04:47;3.80;;;3.50;;
2674;SDS011;1347;42.122;24.746;2022-09-03T13:07:19;2.57;;;2.37;;
2674;SDS011;1347;42.122;24.746;2022-09-03T13:09:50;6.37;;;2.97;;
2674;SDS011;1347;42.122;24.746;2022-09-03T13:12:27;5.80;;;3.23;;
2674;SDS011;1347;42.122;24.746;2022-09-03T13:14:56;3.90;;;3.10;;
2674;SDS011;1347;42.122;24.746;2022-09-03T13:17:26;2.70;;;2.50;;
2674;SDS011;1347;42.122;24.746;2022-09-03T13:20:11;2.70;;;2.50;;
2674;SDS011;1347;42.122;24.746;2022-09-03T13:22:54;3.00;;;2.80;;
2674;SDS011;1347;42.122;24.746;2022-09-03T13:25:29;2.40;;;2.20;;
2674;SDS011;1347;42.122;24.746;2022-09-03T13:28:06;2.40;;;2.20;;
2674;SDS011;1347;42.122;24.746;2022-09-03T13:30:46;2.70;;;2.50;;
2674;SDS011;1347;42.122;24.746;2022-09-03T13:33:20;3.30;;;3.00;;
2674;SDS011;1347;42.122;24.746;2022-09-03T13:35:52;2.40;;;2.20;;
2674;SDS011;1347;42.122;24.746;2022-09-03T13:38:27;2.97;;;2.17;;
2674;SDS011;1347;42.122;24.746;2022-09-03T13:41:01;2.40;;;2.10;;
2674;SDS011;1347;42.122;24.746;2022-09-03T13:43:46;3.23;;;2.47;;
2674;SDS011;1347;42.122;24.746;2022-09-03T13:46:20;3.07;;;2.67;;
2674;SDS011;1347;42.122;24.746;2022-09-03T13:48:55;3.33;;;2.53;;
2674;SDS011;1347;42.122;24.746;2022-09-03T13:51:46;2.70;;;2.50;;
2674;SDS011;1347;42.122;24.746;2022-09-03T13:54:18;2.40;;;2.20;;
2674;SDS011;1347;42.122;24.746;2022-09-03T13:56:52;2.60;;;2.40;;
2674;SDS011;1347;42.122;24.746;2022-09-03T13:59:30;2.80;;;1.97;;
2674;SDS011;1347;42.122;24.746;2022-09-03T14:02:11;2.47;;;2.27;;
2674;SDS011;1347;42.122;24.746;2022-09-03T14:04:53;2.20;;;2.00;;
2674;SDS011;1347;42.122;24.746;2022-09-03T14:07:27;2.60;;;2.40;;
2674;SDS011;1347;42.122;24.746;2022-09-03T14:10:15;2.57;;;2.37;;
2674;SDS011;1347;42.122;24.746;2022-09-03T14:12:48;3.77;;;2.23;;
2674;SDS011;1347;42.122;24.746;2022-09-03T14:15:28;4.30;;;1.90;;
2674;SDS011;1347;42.122;24.746;2022-09-03T14:18:01;2.33;;;2.13;;
2674;SDS011;1347;42.122;24.746;2022-09-03T14:20:40;2.80;;;2.60;;
2674;SDS011;1347;42.122;24.746;2022-09-03T14:23:19;2.73;;;2.53;;
2674;SDS011;1347;42.122;24.746;2022-09-03T14:25:51;3.00;;;2.67;;
2674;SDS011;1347;42.122;24.746;2022-09-03T14:28:24;2.87;;;2.67;;
2674;SDS011;1347;42.122;24.746;2022-09-03T14:31:00;3.67;;;3.37;;
2674;SDS011;1347;42.122;24.746;2022-09-03T14:33:38;3.13;;;2.83;;
2674;SDS011;1347;42.122;24.746;2022-09-03T14:36:18;3.40;;;3.10;;
2674;SDS011;1347;42.122;24.746;2022-09-03T14:41:50;3.37;;;3.07;;
2674;SDS011;1347;42.122;24.746;2022-09-03T14:47:52;3.90;;;3.60;;
2674;SDS011;1347;42.122;24.746;2022-09-03T14:50:33;3.60;;;3.30;;
2674;SDS011;1347;42.122;24.746;2022-09-03T14:53:14;3.90;;;3.60;;
2674;SDS011;1347;42.122;24.746;2022-09-03T14:56:01;6.97;;;3.93;;
2674;SDS011;1347;42.122;24.746;2022-09-03T14:58:42;3.10;;;2.87;;
2674;SDS011;1347;42.122;24.746;2022-09-03T15:01:24;3.90;;;3.57;;
2674;SDS011;1347;42.122;24.746;2022-09-03T15:07:10;4.33;;;3.93;;
2674;SDS011;1347;42.122;24.746;2022-09-03T15:09:51;4.70;;;3.33;;
2674;SDS011;1347;42.122;24.746;2022-09-03T15:12:29;3.70;;;3.40;;
2674;SDS011;1347;42.122;24.746;2022-09-03T15:15:04;3.63;;;3.33;;
2674;SDS011;1347;42.122;24.746;2022-09-03T15:17:40;4.63;;;3.97;;
2674;SDS011;1347;42.122;24.746;2022-09-03T15:20:23;4.17;;;3.60;;
2674;SDS011;1347;42.122;24.746;2022-09-03T15:23:19;3.27;;;3.07;;
2674;SDS011;1347;42.122;24.746;2022-09-03T15:25:57;3.17;;;2.87;;
2674;SDS011;1347;42.122;24.746;2022-09-03T15:29:03;3.90;;;2.83;;
2674;SDS011;1347;42.122;24.746;2022-09-03T15:31:44;3.57;;;3.30;;
2674;SDS011;1347;42.122;24.746;2022-09-03T15:34:26;3.40;;;3.17;;
2674;SDS011;1347;42.122;24.746;2022-09-03T15:37:15;3.40;;;3.10;;
2674;SDS011;1347;42.122;24.746;2022-09-03T15:39:46;3.50;;;3.20;;